createdAt,value
2018-11-22T00:00:28.617Z,88.05
2018-11-22T00:02:58.038Z,93.90
2018-11-22T00:05:26.066Z,92.22
2018-11-22T00:07:55.184Z,84.58
2018-11-22T00:10:23.725Z,80.03
2018-11-22T00:12:52.537Z,75.85
2018-11-22T00:15:22.078Z,75.92
2018-11-22T00:17:51.281Z,74.55
2018-11-22T00:20:19.320Z,79.20
2018-11-22T00:22:47.438Z,80.72
2018-11-22T00:25:16.563Z,74.65
2018-11-22T00:27:44.720Z,67.22
2018-11-22T00:30:14.624Z,75.72
2018-11-22T00:32:42.767Z,66.92
2018-11-22T00:35:12.267Z,68.90
2018-11-22T00:37:41.708Z,71.77
2018-11-22T00:40:12.289Z,65.17
2018-11-22T00:42:40.797Z,71.00
2018-11-22T00:45:10.403Z,62.38
2018-11-22T00:47:38.604Z,69.32
2018-11-22T00:50:08.094Z,65.47
2018-11-22T00:52:36.262Z,68.25
2018-11-22T00:55:04.735Z,67.45
2018-11-22T00:57:33.552Z,61.08
2018-11-22T01:00:01.607Z,67.70
2018-11-22T01:02:29.766Z,63.92
2018-11-22T01:04:57.790Z,64.75
2018-11-22T01:07:25.864Z,59.90
2018-11-22T01:09:54.244Z,61.92
2018-11-22T01:12:22.307Z,57.53
2018-11-22T01:14:50.420Z,61.53
2018-11-22T01:17:18.451Z,61.28
2018-11-22T01:19:46.581Z,64.50
2018-11-22T01:22:14.625Z,66.87
2018-11-22T01:24:42.770Z,64.05
2018-11-22T01:27:10.837Z,69.50
2018-11-22T01:29:39.003Z,69.20
2018-11-22T01:32:07.146Z,64.67
2018-11-22T01:34:35.314Z,71.10
2018-11-22T01:37:03.369Z,69.25
2018-11-22T01:39:31.610Z,63.60
2018-11-22T01:41:59.674Z,71.42
2018-11-22T01:44:27.820Z,64.45
2018-11-22T01:46:55.840Z,70.03
2018-11-22T01:49:24.193Z,61.90
2018-11-22T01:51:52.241Z,63.13
2018-11-22T01:54:20.357Z,60.15
2018-11-22T01:56:48.376Z,54.45
2018-11-22T01:59:16.772Z,55.63
2018-11-22T02:01:45.513Z,56.00
2018-11-22T02:04:13.576Z,61.15
2018-11-22T02:06:42.059Z,62.08
2018-11-22T02:09:10.900Z,56.23
2018-11-22T02:11:40.396Z,56.42
2018-11-22T02:14:08.469Z,62.20
2018-11-22T02:16:36.914Z,57.85
2018-11-22T02:19:05.026Z,57.67
2018-11-22T02:21:33.563Z,59.05
2018-11-22T02:24:02.330Z,55.98
2018-11-22T02:26:30.646Z,61.95
2018-11-22T02:28:58.667Z,57.58
2018-11-22T02:31:27.499Z,59.80
2018-11-22T02:33:55.513Z,63.63
2018-11-22T02:36:23.546Z,53.55
2018-11-22T02:38:51.699Z,61.45
2018-11-22T02:41:19.961Z,66.42
2018-11-22T02:43:48.272Z,59.13
2018-11-22T02:46:16.302Z,67.45
2018-11-22T02:48:44.440Z,58.00
2018-11-22T02:51:12.482Z,62.67
2018-11-22T02:53:40.654Z,57.55
2018-11-22T02:56:08.715Z,64.32
2018-11-22T02:58:36.836Z,69.30
2018-11-22T03:01:04.966Z,60.35
2018-11-22T03:03:33.074Z,55.70
2018-11-22T03:06:01.107Z,55.83
2018-11-22T03:08:29.338Z,55.55
2018-11-22T03:10:57.372Z,60.67
2018-11-22T03:13:25.534Z,59.20
2018-11-22T03:15:53.640Z,63.55
2018-11-22T03:18:21.754Z,58.00
2018-11-22T03:20:49.809Z,59.83
2018-11-22T03:23:17.923Z,63.50
2018-11-22T03:25:45.962Z,60.17
2018-11-22T03:28:14.341Z,67.27
2018-11-22T03:30:42.386Z,58.45
2018-11-22T03:33:10.479Z,61.33
2018-11-22T03:35:38.567Z,68.00
2018-11-22T03:38:06.666Z,66.35
2018-11-22T03:40:35.418Z,53.73
2018-11-22T03:43:03.994Z,56.33
2018-11-22T03:45:32.439Z,61.37
2018-11-22T03:48:00.551Z,49.83
2018-11-22T03:50:29.250Z,54.88
2018-11-22T03:52:57.619Z,53.13
2018-11-22T03:55:25.808Z,52.83
2018-11-22T03:57:54.500Z,54.95
2018-11-22T04:00:24.041Z,53.98
2018-11-22T04:02:52.727Z,62.50
2018-11-22T04:05:22.394Z,63.17
2018-11-22T04:07:50.529Z,53.05
2018-11-22T04:10:20.094Z,52.25
2018-11-22T04:12:48.258Z,46.75
2018-11-22T04:15:16.428Z,55.03
2018-11-22T04:17:44.541Z,49.80
2018-11-22T04:20:17.011Z,50.95
2018-11-22T04:22:45.127Z,42.13
2018-11-22T04:25:13.904Z,43.30
2018-11-22T04:27:42.200Z,44.25
2018-11-22T04:30:27.284Z,41.75
2018-11-22T04:32:55.429Z,42.75
2018-11-22T04:35:23.847Z,41.60
2018-11-22T04:37:52.068Z,45.45
2018-11-22T04:40:21.372Z,42.73
2018-11-22T04:42:50.037Z,38.90
2018-11-22T04:45:18.403Z,39.30
2018-11-22T04:47:47.189Z,41.95
2018-11-22T04:50:16.727Z,46.05
2018-11-22T04:52:44.866Z,44.20
2018-11-22T04:55:12.929Z,42.03
2018-11-22T04:57:41.026Z,42.45
2018-11-22T05:00:11.006Z,44.25
2018-11-22T05:02:39.059Z,42.15
2018-11-22T05:05:08.626Z,42.50
2018-11-22T05:07:37.053Z,46.50
2018-11-22T05:10:06.714Z,46.23
2018-11-22T05:12:34.857Z,41.18
2018-11-22T05:15:02.905Z,44.65
2018-11-22T05:17:30.933Z,43.73
2018-11-22T05:19:59.065Z,44.98
2018-11-22T05:22:27.100Z,48.52
2018-11-22T05:24:55.377Z,45.30
2018-11-22T05:27:23.573Z,51.08
2018-11-22T05:29:51.607Z,44.63
2018-11-22T05:32:19.639Z,48.78
2018-11-22T05:34:47.746Z,47.43
2018-11-22T05:37:15.803Z,49.23
2018-11-22T05:39:43.854Z,48.50
2018-11-22T05:42:11.983Z,50.98
2018-11-22T05:44:40.142Z,48.30
2018-11-22T05:47:08.155Z,49.13
2018-11-22T05:49:36.304Z,48.80
2018-11-22T05:52:04.347Z,50.92
2018-11-22T05:54:32.398Z,44.33
2018-11-22T05:57:00.542Z,45.35
2018-11-22T12:17:13.756Z,43.38
2018-11-22T12:19:42.221Z,44.23
2018-11-22T12:22:10.683Z,44.10
2018-11-22T12:24:39.188Z,44.15
2018-11-22T12:27:07.736Z,44.40
2018-11-22T12:29:36.180Z,44.05
2018-11-22T12:32:10.712Z,41.53
2018-11-22T12:34:44.417Z,42.60
2018-11-22T12:37:17.849Z,43.52
2018-11-22T12:39:46.502Z,41.37
2018-11-22T12:42:14.973Z,41.63
2018-11-22T12:44:43.516Z,44.42
2018-11-22T12:47:11.912Z,42.30
2018-11-22T12:49:40.361Z,35.43
2018-11-22T12:52:08.765Z,42.15
2018-11-22T12:54:37.236Z,35.25
2018-11-22T12:57:05.753Z,35.85
2018-11-22T12:59:34.205Z,44.67
2018-11-22T13:02:02.687Z,41.83
2018-11-22T13:04:31.218Z,41.15
2018-11-22T13:06:59.662Z,42.15
2018-11-22T13:09:28.104Z,39.33
2018-11-22T13:11:57.487Z,42.67
2018-11-22T13:14:25.912Z,36.68
2018-11-22T13:16:54.375Z,38.58
2018-11-22T13:19:22.959Z,46.05
2018-11-22T13:21:51.392Z,33.98
2018-11-22T13:24:19.839Z,39.53
2018-11-22T13:26:48.355Z,38.70
2018-11-22T13:29:16.776Z,40.17
2018-11-22T13:31:45.212Z,38.50
2018-11-22T13:34:13.707Z,36.42
2018-11-22T13:36:42.320Z,34.15
2018-11-22T13:39:11.543Z,37.10
2018-11-22T13:41:40.050Z,36.38
2018-11-22T13:44:08.644Z,32.23
2018-11-22T13:46:37.120Z,33.78
2018-11-22T13:49:05.853Z,37.17
2018-11-22T13:51:34.352Z,36.48
2018-11-22T13:54:02.902Z,37.70
2018-11-22T13:56:31.375Z,36.03
2018-11-22T13:58:59.946Z,40.38
2018-11-22T14:01:28.330Z,35.05
2018-11-22T14:03:56.979Z,42.40
2018-11-22T14:06:25.480Z,35.95
2018-11-22T14:08:53.969Z,39.15
2018-11-22T14:11:22.427Z,39.80
2018-11-22T14:13:51.148Z,39.65
2018-11-22T14:16:19.640Z,40.48
2018-11-22T14:18:48.084Z,40.78
2018-11-22T14:21:16.586Z,45.43
2018-11-22T14:23:45.164Z,45.43
2018-11-22T14:26:13.600Z,42.23
2018-11-22T14:28:42.172Z,42.85
2018-11-22T14:31:10.676Z,47.62
2018-11-22T14:33:39.219Z,49.70
2018-11-22T14:36:07.699Z,41.83
2018-11-22T14:38:36.370Z,43.92
2018-11-22T14:41:05.092Z,43.78
2018-11-22T14:43:33.525Z,46.40
2018-11-22T14:46:01.988Z,41.35
2018-11-22T14:48:30.470Z,32.75
2018-11-22T14:51:42.928Z,46.68
2018-11-22T14:54:11.399Z,37.23
2018-11-22T14:56:40.416Z,41.25
2018-11-22T14:59:08.907Z,39.00
2018-11-22T15:01:37.614Z,39.95
2018-11-22T15:04:06.230Z,35.58
2018-11-22T15:06:34.670Z,37.98
2018-11-22T15:09:03.202Z,43.23
2018-11-22T15:11:31.616Z,42.27
2018-11-22T15:14:00.061Z,39.83
2018-11-22T15:16:28.543Z,40.08
2018-11-22T15:18:56.989Z,40.95
2018-11-22T15:21:25.527Z,34.60
2018-11-22T15:23:54.092Z,33.75
2018-11-22T15:26:22.511Z,32.80
2018-11-22T15:28:50.826Z,36.20
2018-11-22T15:31:19.329Z,27.70
2018-11-22T15:33:47.799Z,32.85
2018-11-22T15:36:16.255Z,33.48
2018-11-22T15:38:44.727Z,33.88
2018-11-22T15:41:13.128Z,34.15
2018-11-22T15:43:41.522Z,34.05
2018-11-22T15:46:09.944Z,37.25
2018-11-22T15:48:41.163Z,33.80
2018-11-22T15:51:09.737Z,32.98
2018-11-22T15:53:38.168Z,34.80
2018-11-22T15:56:06.668Z,37.08
2018-11-22T15:58:35.156Z,32.25
2018-11-22T16:01:03.625Z,35.88
2018-11-22T16:03:33.182Z,33.60
2018-11-22T16:06:01.642Z,38.10
2018-11-22T16:08:29.992Z,39.55
2018-11-22T16:10:58.418Z,38.20
2018-11-22T16:13:27.078Z,37.73
2018-11-22T16:15:55.472Z,41.18
2018-11-22T16:18:24.029Z,41.50
2018-11-22T16:20:52.428Z,42.15
2018-11-22T16:23:20.847Z,38.70
2018-11-22T16:25:49.192Z,41.63
2018-11-22T16:28:17.517Z,35.78
2018-11-22T16:30:46.027Z,37.42
2018-11-22T16:33:14.382Z,43.78
2018-11-22T16:35:42.764Z,42.40
2018-11-22T16:38:11.136Z,42.08
2018-11-22T16:40:39.456Z,44.03
2018-11-22T16:43:07.788Z,44.90
2018-11-22T16:45:37.125Z,46.05
2018-11-22T16:48:07.333Z,42.23
2018-11-22T16:50:36.662Z,42.60
2018-11-22T16:53:05.212Z,42.55
2018-11-22T16:55:33.573Z,44.55
2018-11-22T16:58:02.641Z,50.58
2018-11-22T17:00:32.952Z,43.83
2018-11-22T17:03:02.821Z,47.45
2018-11-22T17:05:31.454Z,44.80
2018-11-22T17:08:00.505Z,48.55
2018-11-22T17:10:29.915Z,48.90
2018-11-22T17:12:59.383Z,47.88
2018-11-22T17:15:30.244Z,51.08
2018-11-22T17:17:59.064Z,52.73
2018-11-22T17:20:28.403Z,47.08
2018-11-22T17:22:56.861Z,49.65
2018-11-22T17:25:26.447Z,50.58
2018-11-22T17:27:56.304Z,54.40
2018-11-22T17:30:27.028Z,55.70
2018-11-22T17:32:55.548Z,53.40
2018-11-22T17:35:25.136Z,59.00
2018-11-22T17:37:54.630Z,56.30
2018-11-22T17:40:26.163Z,54.23
2018-11-22T17:42:54.725Z,49.27
2018-11-22T17:45:53.423Z,55.20
2018-11-22T17:48:21.765Z,52.83
2018-11-22T17:50:50.373Z,46.83
2018-11-22T17:53:18.706Z,47.08
2018-11-22T17:55:47.039Z,44.70
2018-11-22T17:58:15.676Z,48.00
2018-11-22T18:00:53.131Z,44.95
2018-11-22T18:03:21.592Z,45.63
2018-11-22T18:05:50.487Z,40.75
2018-11-22T18:08:18.796Z,52.83
2018-11-22T18:10:48.767Z,43.85
2018-11-22T18:13:17.189Z,41.63
2018-11-22T18:15:50.859Z,40.38
2018-11-22T18:18:19.206Z,43.68
2018-11-22T18:20:47.643Z,53.45
2018-11-22T18:23:15.978Z,50.43
2018-11-22T18:25:48.939Z,50.92
2018-11-22T18:28:12.644Z,49.48
2018-11-22T18:30:40.977Z,50.17
2018-11-22T18:33:09.667Z,49.18
2018-11-22T18:35:37.979Z,47.75
2018-11-22T18:38:06.380Z,46.15
2018-11-22T18:40:36.354Z,56.35
2018-11-22T18:43:05.141Z,51.53
2018-11-22T18:45:35.679Z,45.78
2018-11-22T18:48:04.863Z,61.75
2018-11-22T18:50:34.070Z,42.48
2018-11-22T18:53:02.453Z,44.67
2018-11-22T18:55:31.181Z,45.33
2018-11-22T18:57:59.520Z,44.98
2018-11-22T19:00:29.858Z,56.00
2018-11-22T19:02:59.513Z,62.17
2018-11-22T19:05:27.905Z,48.80
2018-11-22T19:07:56.883Z,47.75
2018-11-22T19:10:26.549Z,50.92
2018-11-22T19:12:56.261Z,48.63
2018-11-22T19:15:26.076Z,52.23
2018-11-22T19:17:54.838Z,51.10
2018-11-22T19:20:25.451Z,49.55
2018-11-22T19:22:54.438Z,52.27
2018-11-22T19:25:23.309Z,45.90
2018-11-22T19:27:52.021Z,45.08
2018-11-22T19:30:22.916Z,53.02
2018-11-22T19:32:52.245Z,51.30
2018-11-22T19:35:22.169Z,43.25
2018-11-22T19:37:50.872Z,47.98
2018-11-22T19:40:24.859Z,42.17
2018-11-22T19:42:54.433Z,42.38
2018-11-22T19:45:24.119Z,46.65
2018-11-22T19:47:52.443Z,48.42
2018-11-22T19:50:22.268Z,44.35
2018-11-22T19:52:51.103Z,49.30
2018-11-22T19:55:22.869Z,51.20
2018-11-22T19:57:52.855Z,48.98
2018-11-22T20:00:21.931Z,53.13
2018-11-22T20:02:51.053Z,47.38
2018-11-22T20:05:20.233Z,57.35
2018-11-22T20:07:50.331Z,57.05
2018-11-22T20:10:20.384Z,46.15
2018-11-22T20:12:48.876Z,44.80
2018-11-22T20:15:17.285Z,46.15
2018-11-22T20:17:46.614Z,43.45
2018-11-22T20:20:16.112Z,42.20
2018-11-22T20:22:44.630Z,39.50
2018-11-22T20:25:13.062Z,44.90
2018-11-22T20:27:43.064Z,39.88
2018-11-22T20:30:15.025Z,45.65
2018-11-22T20:32:43.498Z,45.40
2018-11-22T20:35:13.613Z,43.90
2018-11-22T20:37:42.361Z,42.17
2018-11-22T20:40:11.955Z,45.63
2018-11-22T20:42:40.899Z,39.25
2018-11-22T20:45:11.047Z,41.65
2018-11-22T20:47:40.222Z,41.40
2018-11-22T20:50:10.596Z,39.15
2018-11-22T20:52:39.031Z,38.48
2018-11-22T20:55:09.636Z,38.38
2018-11-22T20:57:38.065Z,36.90
2018-11-22T21:00:09.372Z,37.58
2018-11-22T21:02:37.849Z,39.35
2018-11-22T21:05:07.315Z,48.90
2018-11-22T21:07:35.805Z,44.65
2018-11-22T21:10:04.564Z,40.23
2018-11-22T21:12:33.031Z,41.85
2018-11-22T21:15:01.446Z,39.60
2018-11-22T21:17:29.871Z,43.58
2018-11-22T21:19:58.380Z,43.95
2018-11-22T21:22:26.860Z,41.92
2018-11-22T21:24:55.335Z,38.08
2018-11-22T21:27:23.795Z,41.80
2018-11-22T21:29:52.303Z,39.95
2018-11-22T21:32:20.760Z,45.55
2018-11-22T21:34:49.242Z,37.80
2018-11-22T21:37:17.672Z,41.13
2018-11-22T21:39:46.075Z,43.60
2018-11-22T21:42:14.533Z,38.90
2018-11-22T21:44:43.024Z,37.17
2018-11-22T21:47:11.460Z,41.90
2018-11-22T21:49:39.907Z,39.20
2018-11-22T21:52:08.373Z,40.40
2018-11-22T21:54:37.705Z,35.00
2018-11-22T21:57:06.118Z,40.00
2018-11-22T21:59:34.534Z,40.80
2018-11-22T22:02:02.965Z,45.60
2018-11-22T22:04:31.404Z,44.60
2018-11-22T22:06:59.836Z,35.00
2018-11-22T22:09:28.295Z,40.70
2018-11-22T22:11:56.710Z,50.58
2018-11-22T22:14:25.169Z,41.40
2018-11-22T22:16:53.750Z,40.30
2018-11-22T22:19:22.189Z,40.95
2018-11-22T22:21:50.683Z,42.98
2018-11-22T22:24:19.384Z,41.23
2018-11-22T22:26:47.843Z,44.58
2018-11-22T22:29:16.459Z,41.53
2018-11-22T22:31:44.881Z,41.40
2018-11-22T22:34:13.323Z,39.58
2018-11-22T22:36:41.782Z,35.73
2018-11-22T22:39:11.528Z,40.55
2018-11-22T22:41:40.052Z,37.48
2018-11-22T22:44:08.523Z,34.23
2018-11-22T22:46:36.956Z,36.65
2018-11-22T22:49:05.444Z,36.05
2018-11-22T22:51:33.893Z,37.25
2018-11-22T22:54:02.355Z,40.20
2018-11-22T22:56:30.743Z,38.88
2018-11-22T22:58:59.134Z,30.45
2018-11-22T23:01:27.599Z,34.05
2018-11-22T23:03:55.992Z,42.95
2018-11-22T23:06:24.371Z,35.80
2018-11-22T23:08:52.752Z,36.80
2018-11-22T23:11:21.179Z,38.45
2018-11-22T23:13:49.919Z,37.10
2018-11-22T23:16:18.329Z,36.63
2018-11-22T23:18:46.703Z,33.73
2018-11-22T23:21:15.128Z,30.35
2018-11-22T23:23:43.547Z,32.55
2018-11-22T23:26:11.996Z,33.78
2018-11-22T23:28:40.636Z,37.10
2018-11-22T23:31:09.019Z,38.95
2018-11-22T23:33:37.430Z,36.90
2018-11-22T23:36:05.938Z,31.42
2018-11-22T23:38:34.408Z,34.55
2018-11-22T23:41:02.795Z,33.05
2018-11-22T23:43:31.157Z,42.70
2018-11-22T23:45:59.572Z,37.08
2018-11-22T23:48:28.013Z,37.25
2018-11-22T23:50:56.876Z,39.78
2018-11-22T23:53:25.254Z,46.35
2018-11-22T23:55:53.700Z,37.70
2018-11-22T23:58:22.108Z,40.35
